Terminal Aerodrome Forecast
Issued by NWS

Home | Current Version | Previous Version | Text Only | Print | Product List | Glossary On
Versions: 1 2 3 4 5 6 7 8 9 10 11 12 13 14 15 16 17 18 19
000
FTUS43 KABR 281740
TAFATY
TAF
KATY 281740Z 2818/2918 17024G30KT P6SM SCT040 SCT200
     FM290000 18013G20KT P6SM VCTS SCT050CB BKN250
     FM290600 17008KT P6SM VCSH OVC008=

USA.gov is the U.S. government's official web portal to all federal, state and local government web resources and services.